createdAt,value
2023-02-25T00:02:32.080Z,98278.66
2023-02-25T00:07:54.607Z,98283.31
2023-02-25T00:13:18.562Z,98286.56
2023-02-25T00:18:40.846Z,98276.28
2023-02-25T00:24:15.551Z,98252.81
2023-02-25T00:29:38.166Z,98252.31
2023-02-25T00:35:00.213Z,98256.09
2023-02-25T00:40:22.091Z,98257.03
2023-02-25T00:45:43.949Z,98253.47
2023-02-25T00:51:08.458Z,98233.41
2023-02-25T00:56:30.326Z,98219.66
2023-02-25T01:01:52.656Z,98224.38
2023-02-25T01:07:14.764Z,98204.00
2023-02-25T01:12:37.594Z,98196.78
2023-02-25T01:17:59.410Z,98207.78
2023-02-25T01:23:21.281Z,98198.94
2023-02-25T01:28:43.218Z,98187.63
2023-02-25T01:34:07.149Z,98172.00
2023-02-25T01:39:29.937Z,98176.16
2023-02-25T01:45:16.756Z,98155.56
2023-02-25T01:50:52.385Z,98155.81
2023-02-25T01:56:19.925Z,98139.34
2023-02-25T02:01:43.596Z,98141.19
2023-02-25T02:07:06.220Z,98134.75
2023-02-25T02:12:39.931Z,98120.16
2023-02-25T02:18:03.204Z,98122.72
2023-02-25T02:24:03.172Z,98115.47
2023-02-25T02:29:55.884Z,98090.44
2023-02-25T02:35:36.456Z,98093.38
2023-02-25T02:41:15.342Z,98083.56
2023-02-25T02:46:52.865Z,98081.66
2023-02-25T02:52:20.959Z,98075.66
2023-02-25T02:57:43.463Z,98056.50
2023-02-25T03:03:10.911Z,98048.78
2023-02-25T03:08:38.572Z,98044.75
2023-02-25T03:14:00.434Z,98046.75
2023-02-25T03:19:31.577Z,98044.00
2023-02-25T03:25:05.692Z,98033.84
2023-02-25T03:30:50.580Z,98030.38
2023-02-25T03:36:18.762Z,98037.56
2023-02-25T03:41:44.297Z,98031.03
2023-02-25T03:47:08.400Z,98031.09
2023-02-25T03:52:30.685Z,98046.69
2023-02-25T03:57:52.561Z,98048.69
2023-02-25T04:03:14.443Z,98043.72
2023-02-25T04:08:36.285Z,98036.41
2023-02-25T04:13:58.118Z,98042.03
2023-02-25T04:19:19.945Z,98047.44
2023-02-25T04:24:41.804Z,98050.03
2023-02-25T04:30:05.097Z,98053.03
2023-02-25T04:35:27.152Z,98064.53
2023-02-25T04:40:51.604Z,98059.84
2023-02-25T04:46:14.093Z,98051.28
2023-02-25T04:51:38.012Z,98027.94
2023-02-25T04:56:59.852Z,98034.47
2023-02-25T05:02:21.763Z,98042.03
2023-02-25T05:07:43.739Z,98031.25
2023-02-25T05:13:05.579Z,98036.00
2023-02-25T05:18:27.402Z,98030.56
2023-02-25T05:23:51.523Z,98044.41
2023-02-25T05:29:13.379Z,98049.47
2023-02-25T05:34:35.224Z,98030.91
2023-02-25T05:39:57.088Z,98051.69
2023-02-25T05:45:19.162Z,98040.69
2023-02-25T05:50:41.068Z,98051.19
2023-02-25T05:56:12.671Z,98053.78
2023-02-25T06:01:34.495Z,98067.75
2023-02-25T06:06:56.317Z,98064.47
2023-02-25T06:12:18.142Z,98053.72
2023-02-25T06:17:40.414Z,98067.25
2023-02-25T06:23:03.651Z,98067.91
2023-02-25T06:28:25.637Z,98045.78
2023-02-25T06:33:47.507Z,98063.88
2023-02-25T06:39:09.352Z,98065.00
2023-02-25T06:44:31.214Z,98067.78
2023-02-25T06:49:55.745Z,98067.38
2023-02-25T06:55:17.695Z,98063.03
2023-02-25T07:00:39.600Z,98055.97
2023-02-25T07:06:01.512Z,98065.38
2023-02-25T07:11:30.067Z,98065.00
2023-02-25T07:16:51.931Z,98060.66
2023-02-25T07:22:16.119Z,98060.31
2023-02-25T07:27:44.225Z,98056.41
2023-02-25T07:33:06.707Z,98059.44
2023-02-25T07:38:28.601Z,98068.31
2023-02-25T07:43:50.536Z,98059.84
2023-02-25T07:49:12.412Z,98059.97
2023-02-25T07:54:34.274Z,98064.66
2023-02-25T07:59:56.445Z,98050.69
2023-02-25T08:05:18.482Z,98058.84
2023-02-25T08:10:40.450Z,98058.97
2023-02-25T08:16:09.068Z,98053.00
2023-02-25T08:21:31.902Z,98065.44
2023-02-25T08:26:53.787Z,98051.91
2023-02-25T08:32:15.735Z,98061.78
2023-02-25T08:37:37.664Z,98058.22
2023-02-25T08:42:59.587Z,98059.81
2023-02-25T08:48:21.472Z,98062.31
2023-02-25T08:53:43.421Z,98053.25
2023-02-25T08:59:05.320Z,98051.69
2023-02-25T09:04:27.222Z,98050.47
2023-02-25T09:09:49.232Z,98044.72
2023-02-25T09:15:12.239Z,98040.22
2023-02-25T09:20:34.124Z,98044.03
2023-02-25T09:25:56.015Z,98042.50
2023-02-25T09:31:18.628Z,98035.44
2023-02-25T09:36:41.202Z,98031.22
2023-02-25T09:42:09.713Z,98021.69
2023-02-25T09:47:50.298Z,98031.84
2023-02-25T09:53:34.020Z,98030.53
2023-02-25T09:58:59.678Z,98018.47
2023-02-25T10:04:29.889Z,98008.78
2023-02-25T10:10:00.129Z,98001.63
2023-02-25T10:15:52.712Z,98013.81
2023-02-25T10:21:55.836Z,98015.09
2023-02-25T10:27:24.259Z,97994.44
2023-02-25T10:32:46.626Z,98012.66
2023-02-25T10:38:11.105Z,97998.50
2023-02-25T10:43:34.380Z,97999.06
2023-02-25T10:49:20.700Z,98033.59
2023-02-25T10:54:49.843Z,98056.34
2023-02-25T11:00:26.749Z,98053.78
2023-02-25T11:05:48.622Z,98028.75
2023-02-25T11:11:20.434Z,98035.38
2023-02-25T11:16:44.443Z,98030.22
2023-02-25T11:22:15.865Z,98036.44
2023-02-25T11:27:40.924Z,98012.94
2023-02-25T11:33:24.480Z,98022.28
2023-02-25T11:38:47.722Z,98021.47
2023-02-25T11:44:38.943Z,98034.56
2023-02-25T11:50:25.054Z,98029.66
2023-02-25T11:55:49.967Z,98036.63
2023-02-25T12:01:41.197Z,98031.00
2023-02-25T12:07:37.237Z,98026.09
2023-02-25T12:13:01.860Z,98029.03
2023-02-25T12:19:09.001Z,98026.47
2023-02-25T12:25:08.057Z,98033.25
2023-02-25T12:30:48.165Z,98032.78
2023-02-25T12:36:31.150Z,98037.31
2023-02-25T12:41:55.713Z,98038.69
2023-02-25T12:47:37.751Z,98045.31
2023-02-25T12:53:25.860Z,98037.69
2023-02-25T12:59:20.208Z,98049.22
2023-02-25T13:05:12.853Z,98049.41
2023-02-25T13:10:39.370Z,98046.31
2023-02-25T13:16:19.954Z,98068.88
2023-02-25T13:21:52.876Z,98089.22
2023-02-25T13:27:39.552Z,98090.38
2023-02-25T13:33:01.319Z,98087.59
2023-02-25T13:38:27.621Z,98088.91
2023-02-25T13:43:55.215Z,98092.91
2023-02-25T13:49:57.236Z,98095.56
2023-02-25T13:55:44.040Z,98094.66
2023-02-25T14:01:43.521Z,98103.69
2023-02-25T14:07:23.402Z,98113.69
2023-02-25T14:13:09.819Z,98118.31
2023-02-25T14:18:43.577Z,98120.22
2023-02-25T14:24:34.473Z,98138.31
2023-02-25T14:30:32.528Z,98140.25
2023-02-25T14:36:09.289Z,98145.66
2023-02-25T14:41:57.690Z,98146.50
2023-02-25T14:47:34.211Z,98136.88
2023-02-25T14:53:29.107Z,98154.97
2023-02-25T14:59:06.324Z,98165.06
2023-02-25T15:04:36.868Z,98181.44
2023-02-25T15:10:13.083Z,98188.28
2023-02-25T15:15:54.906Z,98196.78
2023-02-25T15:21:35.589Z,98209.78
2023-02-25T15:26:58.237Z,98222.59
2023-02-25T15:32:23.118Z,98228.84
2023-02-25T15:37:50.790Z,98235.41
2023-02-25T15:43:12.573Z,98246.03
2023-02-25T15:48:37.312Z,98240.41
2023-02-25T15:53:59.428Z,98242.59
2023-02-25T15:59:39.966Z,98270.03
2023-02-25T16:05:17.202Z,98276.16
2023-02-25T16:10:49.489Z,98294.97
2023-02-25T16:16:13.103Z,98299.34
2023-02-25T16:21:41.000Z,98296.03
2023-02-25T16:27:17.961Z,98313.16
2023-02-25T16:33:12.264Z,98333.44
2023-02-25T16:39:04.859Z,98345.75
2023-02-25T16:44:34.253Z,98350.25
2023-02-25T16:49:58.286Z,98352.59
2023-02-25T16:55:27.604Z,98344.03
2023-02-25T17:00:53.874Z,98346.03
2023-02-25T17:06:19.160Z,98371.50
2023-02-25T17:11:41.096Z,98360.63
2023-02-25T17:17:03.034Z,98369.31
2023-02-25T17:22:25.363Z,98386.53
2023-02-25T17:27:49.767Z,98393.63
2023-02-25T17:33:31.959Z,98403.63
2023-02-25T17:39:00.709Z,98412.53
2023-02-25T17:44:37.729Z,98423.81
2023-02-25T17:50:13.176Z,98421.88
2023-02-25T17:55:35.181Z,98436.50
2023-02-25T18:01:01.085Z,98442.53
2023-02-25T18:06:46.048Z,98438.31
2023-02-25T18:12:22.542Z,98468.59
2023-02-25T18:17:55.194Z,98479.31
2023-02-25T18:23:24.392Z,98471.50
2023-02-25T18:28:46.971Z,98473.25
2023-02-25T18:34:08.828Z,98486.31
2023-02-25T18:39:30.730Z,98482.06
2023-02-25T18:44:52.710Z,98492.13
2023-02-25T18:50:15.169Z,98510.38
2023-02-25T18:55:37.016Z,98508.78
2023-02-25T19:00:59.503Z,98522.31
2023-02-25T19:06:21.467Z,98531.41
2023-02-25T19:11:43.417Z,98539.97
2023-02-25T19:17:05.331Z,98532.41
2023-02-25T19:22:27.197Z,98550.69
2023-02-25T19:27:49.969Z,98557.63
2023-02-25T19:33:12.744Z,98559.44
2023-02-25T19:38:34.619Z,98580.47
2023-02-25T19:43:56.453Z,98568.69
2023-02-25T19:49:18.351Z,98581.41
2023-02-25T19:54:40.198Z,98612.72
2023-02-25T20:00:02.038Z,98605.50
2023-02-25T20:05:24.755Z,98612.34
2023-02-25T20:10:46.594Z,98639.28
2023-02-25T20:16:08.572Z,98643.66
2023-02-25T20:21:30.403Z,98647.28
2023-02-25T20:26:52.533Z,98665.25
2023-02-25T20:32:14.568Z,98670.41
2023-02-25T20:37:43.849Z,98676.56
2023-02-25T20:43:05.835Z,98689.88
2023-02-25T20:48:30.205Z,98696.16
2023-02-25T20:53:52.748Z,98710.47
2023-02-25T20:59:15.605Z,98712.78
2023-02-25T21:04:37.832Z,98714.13
2023-02-25T21:09:59.642Z,98751.50
2023-02-25T21:15:21.477Z,98744.16
2023-02-25T21:20:43.318Z,98768.22
2023-02-25T21:26:07.082Z,98770.00
2023-02-25T21:31:28.992Z,98787.16
2023-02-25T21:36:50.903Z,98794.81
2023-02-25T21:42:12.756Z,98800.84
2023-02-25T21:47:34.560Z,98816.19
2023-02-25T21:52:56.583Z,98817.78
2023-02-25T21:58:18.473Z,98833.25
2023-02-25T22:03:40.363Z,98852.00
2023-02-25T22:09:02.706Z,98852.09
2023-02-25T22:14:24.567Z,98868.72
2023-02-25T22:19:46.406Z,98876.00
2023-02-25T22:25:08.423Z,98871.97
2023-02-25T22:30:30.288Z,98879.72
2023-02-25T22:36:01.356Z,98909.47
2023-02-25T22:41:28.526Z,98911.25
2023-02-25T22:46:50.437Z,98919.72
2023-02-25T22:52:12.325Z,98930.09
2023-02-25T22:57:34.212Z,98930.16
2023-02-25T23:02:56.088Z,98950.69
2023-02-25T23:08:18.161Z,98961.91
2023-02-25T23:13:42.015Z,98986.50
2023-02-25T23:19:04.987Z,98976.72
2023-02-25T23:24:26.882Z,98997.75
2023-02-25T23:29:48.743Z,99006.28
2023-02-25T23:35:10.838Z,99017.41
2023-02-25T23:40:32.740Z,99016.88
2023-02-25T23:45:54.614Z,99038.09
2023-02-25T23:51:16.463Z,99039.19
2023-02-25T23:56:38.284Z,99049.44
